Glenwood Springs, CO (81601)

4:20 AM MDT on September 30, 2014 (GMT -0600)
Oak Meadows | Change Station
CLOSE
Current Station
Personal Weather Station
Location: Glenwood Springs, CO
Elevation: 7000 ft
Nearby Weather Stations

Elev 7000 ft 39.44 °N, 107.32 °W | Updated 11 seconds ago

Overcast
Overcast
37.7 °F
Feels Like 38 °F
N
0.0
Wind Variable Wind from South
Gusts 0.0 mph

Today
High -- | Low -- °F
--% Chance of Precip.
Yesterday
High -- | Low -- °F
Precip. -- in
7:04 AM 6:53 PM
Waxing Crescent, 35% visible
Pressure 29.97 in
Visibility 10.0 miles
Clouds Scattered Clouds 4700 ft
Mostly Cloudy 7000 ft
Overcast 10000 ft
Windchill 38 °F
Dew Point 36 °F
Humidity 94%
Rainfall 0.01 in
Snow Depth 1 in , 0 in , 0 in
UV 0 out of 12
Pollen 3.50 out of 12
Air Quality Not available.
Flu Activity Not available.
METAR KRIL 300953Z AUTO 12003KT 10SM SCT047 BKN070 OVC100 07/05 A3004 RMK AO2 SLP148 T00670050

More Conditions Fewer Conditions

Pressure 29.97 in
Visibility 10.0 miles
Clouds Scattered Clouds 4700 ft
Mostly Cloudy 7000 ft
Overcast 10000 ft
Windchill 38 °F
Dew Point 36 °F
Humidity 94%
Rainfall 0.01 in
Snow Depth 1 in , 0 in , 0 in
UV 0 out of 12
Pollen 3.50 out of 12
Air Quality Not available.
Flu Activity Not available.
METAR KRIL 300953Z AUTO 12003KT 10SM SCT047 BKN070 OVC100 07/05 A3004 RMK AO2 SLP148 T00670050

More Conditions Fewer Conditions

10-Day Weather Forecast

Almanac

Astronomy

Sep. 30, 2014 Rise Set
Actual Time 7:04 AM MDT 6:53 PM MDT
Civil Twilight 6:37 AM MDT 7:20 PM MDT
Nautical Twilight 6:06 AM MDT 7:51 PM MDT
Astronomical Twilight 5:35 AM MDT 8:22 PM MDT
Moon 1:14 PM MDT 11:27 PM MDT
Length of Visible Light 12h 42m
Length of Day
11h 48m
Tomorrow will be 2m 34s shorter.
Waxing Crescent, 35% of the Moon is Illuminated
Today
Waxing Crescent
Oct 1
First Quarter
Oct 8
Full
Oct 15
Last Quarter
Oct 23
New

Today's Extremes

State Highs State Lows

Community

WunderPhotos

Upload Photos

1,757,610 photos uploaded!

WunderBlogs® & News

Nearby

Snow Depth

Station Depth Elevation
Glen Cove 1 in 11460 ft
Copper Mountain 0 in 10500 ft
Burro Mountain 0 in 9400 ft
Elk River 0 in 8700 ft
Mccoy Park 0 in 9480 ft

Earthquake Activity

City Distance Mag. Time & Date
No recent earthquake activity has been reported nearby.
Minimum magnitude displayed is 2.5.

Coastal Water Temperatures

Place Temperature
No Stations Reporting

Nearby Weather Stations